createdAt,value
2023-04-19T00:00:08.215Z,6.83
2023-04-19T00:02:36.434Z,5.20
2023-04-19T00:05:05.134Z,3.70
2023-04-19T00:07:34.707Z,5.47
2023-04-19T00:10:03.349Z,6.90
2023-04-19T00:12:31.292Z,5.87
2023-04-19T00:14:59.140Z,3.87
2023-04-19T00:17:27.297Z,6.77
2023-04-19T00:19:55.381Z,4.10
2023-04-19T00:22:23.286Z,6.67
2023-04-19T00:24:52.586Z,4.60
2023-04-19T00:27:20.742Z,4.93
2023-04-19T00:29:48.615Z,4.90
2023-04-19T00:32:17.195Z,4.00
2023-04-19T00:34:45.240Z,4.20
2023-04-19T00:37:13.177Z,4.30
2023-04-19T00:39:41.076Z,4.77
2023-04-19T00:42:10.343Z,5.97
2023-04-19T00:44:38.253Z,3.83
2023-04-19T00:47:06.518Z,4.00
2023-04-19T00:49:34.527Z,4.50
2023-04-19T00:52:02.525Z,4.53
2023-04-19T00:54:31.352Z,4.07
2023-04-19T00:56:59.410Z,4.30
2023-04-19T00:59:28.749Z,4.53
2023-04-19T01:01:56.799Z,5.27
2023-04-19T01:04:25.258Z,5.20
2023-04-19T01:06:53.513Z,4.77
2023-04-19T01:09:21.601Z,5.13
2023-04-19T01:11:49.495Z,4.67
2023-04-19T01:14:17.578Z,3.43
2023-04-19T01:16:48.012Z,4.53
2023-04-19T01:19:16.780Z,3.13
2023-04-19T01:21:46.343Z,4.17
2023-04-19T01:24:16.097Z,3.57
2023-04-19T01:26:44.258Z,3.63
2023-04-19T01:29:12.119Z,3.90
2023-04-19T01:31:40.126Z,4.60
2023-04-19T01:34:08.088Z,3.40
2023-04-19T01:36:36.045Z,8.03
2023-04-19T01:39:04.002Z,5.13
2023-04-19T01:41:33.278Z,3.53
2023-04-19T01:44:01.633Z,3.70
2023-04-19T01:46:29.697Z,4.87
2023-04-19T01:48:57.710Z,3.83
2023-04-19T01:51:25.860Z,5.70
2023-04-19T01:53:54.707Z,4.93
2023-04-19T01:56:22.940Z,3.57
2023-04-19T01:58:52.174Z,4.73
2023-04-19T02:01:20.234Z,3.30
2023-04-19T02:03:48.461Z,3.50
2023-04-19T02:06:16.586Z,3.40
2023-04-19T02:08:44.485Z,4.47
2023-04-19T02:11:14.581Z,4.50
2023-04-19T02:13:42.970Z,4.30
2023-04-19T02:16:12.712Z,4.17
2023-04-19T02:18:41.532Z,4.23
2023-04-19T02:21:10.559Z,4.30
2023-04-19T02:23:38.485Z,4.43
2023-04-19T02:26:06.548Z,5.70
2023-04-19T02:28:34.574Z,3.50
2023-04-19T02:31:06.190Z,3.30
2023-04-19T02:33:35.752Z,3.90
2023-04-19T02:36:03.811Z,4.00
2023-04-19T02:38:31.737Z,4.67
2023-04-19T02:41:00.785Z,3.57
2023-04-19T02:43:28.658Z,4.20
2023-04-19T02:45:56.556Z,4.13
2023-04-19T02:48:24.545Z,4.47
2023-04-19T02:50:53.941Z,4.77
2023-04-19T02:53:21.845Z,3.70
2023-04-19T02:55:49.749Z,4.73
2023-04-19T02:58:17.628Z,6.60
2023-04-19T03:00:45.592Z,5.60
2023-04-19T03:03:13.637Z,4.03
2023-04-19T03:05:41.588Z,4.07
2023-04-19T03:08:11.982Z,3.97
2023-04-19T03:10:39.906Z,5.60
2023-04-19T03:13:07.856Z,7.40
2023-04-19T03:15:35.852Z,4.13
2023-04-19T03:18:03.892Z,5.43
2023-04-19T03:20:31.919Z,5.50
2023-04-19T03:22:59.994Z,6.33
2023-04-19T03:25:29.364Z,6.67
2023-04-19T03:27:57.724Z,5.80
2023-04-19T03:30:25.618Z,7.10
2023-04-19T03:32:53.545Z,8.70
2023-04-19T03:35:22.376Z,5.27
2023-04-19T03:37:50.619Z,8.67
2023-04-19T03:40:18.785Z,5.67
2023-04-19T03:42:48.039Z,9.80
2023-04-19T03:45:15.910Z,6.70
2023-04-19T03:47:43.917Z,7.70
2023-04-19T03:50:11.886Z,5.97
2023-04-19T03:52:39.700Z,6.50
2023-04-19T03:55:08.602Z,7.47
2023-04-19T03:57:36.641Z,8.57
2023-04-19T04:00:08.262Z,6.87
2023-04-19T04:02:39.409Z,7.80
2023-04-19T04:05:08.577Z,9.67
2023-04-19T04:07:36.541Z,7.47
2023-04-19T04:10:04.831Z,7.23
2023-04-19T04:12:32.750Z,4.97
2023-04-19T04:15:00.846Z,6.10
2023-04-19T04:17:30.113Z,7.63
2023-04-19T04:19:58.039Z,6.60
2023-04-19T04:22:25.977Z,9.03
2023-04-19T04:24:54.778Z,6.80
2023-04-19T04:27:22.748Z,7.87
2023-04-19T04:29:50.668Z,6.90
2023-04-19T04:32:23.137Z,5.73
2023-04-19T04:34:52.924Z,9.23
2023-04-19T04:37:20.861Z,6.37
2023-04-19T04:39:48.744Z,8.93
2023-04-19T04:42:17.604Z,5.93
2023-04-19T04:44:47.261Z,7.47
2023-04-19T04:47:15.516Z,6.13
2023-04-19T04:49:43.553Z,7.40
2023-04-19T04:52:12.853Z,8.60
2023-04-19T04:54:41.179Z,9.70
2023-04-19T04:57:10.075Z,7.77
2023-04-19T04:59:38.031Z,6.27
2023-04-19T05:02:06.097Z,8.50
2023-04-19T05:04:34.258Z,6.20
2023-04-19T05:07:02.199Z,9.43
2023-04-19T05:09:31.462Z,11.90
2023-04-19T05:11:59.425Z,7.17
2023-04-19T05:14:27.316Z,8.03
2023-04-19T05:16:55.239Z,8.93
2023-04-19T05:19:23.097Z,7.50
2023-04-19T05:21:50.906Z,7.90
2023-04-19T05:24:19.078Z,6.73
2023-04-19T05:26:48.393Z,7.20
2023-04-19T05:29:16.352Z,7.13
2023-04-19T05:31:44.340Z,8.03
2023-04-19T05:34:12.287Z,7.40
2023-04-19T05:36:40.227Z,7.70
2023-04-19T05:39:08.144Z,8.97
2023-04-19T05:41:36.067Z,8.37
2023-04-19T05:44:05.715Z,7.47
2023-04-19T05:46:33.789Z,8.17
2023-04-19T05:49:01.733Z,7.83
2023-04-19T05:51:29.690Z,8.73
2023-04-19T05:53:57.790Z,7.27
2023-04-19T05:56:25.879Z,8.10
2023-04-19T05:58:55.707Z,8.97
2023-04-19T06:01:25.369Z,7.83
2023-04-19T06:03:54.424Z,11.60
2023-04-19T06:06:24.024Z,7.83
2023-04-19T06:08:54.624Z,8.37
2023-04-19T06:11:31.537Z,8.83
2023-04-19T06:14:06.761Z,7.63
2023-04-19T06:16:36.059Z,6.97
2023-04-19T06:19:04.509Z,9.30
2023-04-19T06:21:32.721Z,8.33
2023-04-19T06:24:00.789Z,9.77
2023-04-19T06:26:28.851Z,8.80
2023-04-19T06:28:56.865Z,9.63
2023-04-19T06:31:25.005Z,7.10
2023-04-19T06:33:54.367Z,8.13
2023-04-19T06:36:22.236Z,9.63
2023-04-19T06:38:50.379Z,7.63
2023-04-19T06:41:18.440Z,6.80
2023-04-19T06:43:46.495Z,9.80
2023-04-19T06:46:15.892Z,6.20
2023-04-19T06:48:43.929Z,9.00
2023-04-19T06:51:13.136Z,7.53
2023-04-19T06:53:41.118Z,5.27
2023-04-19T06:56:10.191Z,5.63
2023-04-19T06:58:38.170Z,6.63
2023-04-19T07:01:06.380Z,6.60
2023-04-19T07:03:34.841Z,6.47
2023-04-19T07:06:03.004Z,6.70
2023-04-19T07:08:46.475Z,7.17
2023-04-19T07:11:17.131Z,5.90
2023-04-19T07:13:45.128Z,7.13
2023-04-19T07:16:14.412Z,8.03
2023-04-19T07:18:42.396Z,7.60
2023-04-19T07:21:10.278Z,6.67
2023-04-19T07:23:39.615Z,9.27
2023-04-19T07:26:08.468Z,9.40
2023-04-19T07:28:36.456Z,8.00
2023-04-19T07:31:04.457Z,6.27
2023-04-19T07:33:32.558Z,5.83
2023-04-19T07:36:00.475Z,4.57
2023-04-19T07:38:28.480Z,7.10
2023-04-19T07:40:57.866Z,4.80
2023-04-19T07:43:26.092Z,6.17
2023-04-19T07:45:54.265Z,4.87
2023-04-19T07:48:22.123Z,4.73
2023-04-19T07:50:50.448Z,5.50
2023-04-19T07:53:18.380Z,5.73
2023-04-19T07:55:46.567Z,5.63
2023-04-19T07:58:15.884Z,4.53
2023-04-19T08:00:43.824Z,4.27
2023-04-19T08:03:11.914Z,4.80
2023-04-19T08:05:40.177Z,3.53
2023-04-19T08:08:08.290Z,4.00
2023-04-19T08:10:36.980Z,3.83
2023-04-19T08:13:06.294Z,6.07
2023-04-19T08:18:07.417Z,3.97
2023-04-19T08:20:36.878Z,3.40
2023-04-19T08:23:17.769Z,5.67
2023-04-19T08:25:46.505Z,3.70
2023-04-19T08:28:14.700Z,3.30
2023-04-19T08:30:44.018Z,4.60
2023-04-19T08:33:11.981Z,4.77
2023-04-19T08:35:41.324Z,4.83
2023-04-19T08:38:09.592Z,3.90
2023-04-19T08:40:42.663Z,5.30
2023-04-19T08:43:10.916Z,5.50
2023-04-19T08:45:39.420Z,3.77
2023-04-19T08:48:11.681Z,3.30
2023-04-19T08:50:55.777Z,3.40
2023-04-19T08:53:30.086Z,6.40
2023-04-19T09:01:06.097Z,6.03
2023-04-19T09:03:47.311Z,3.63
2023-04-19T09:06:19.458Z,3.57
2023-04-19T09:08:47.486Z,3.90
2023-04-19T09:11:15.476Z,5.60
2023-04-19T09:13:44.601Z,3.37
2023-04-19T09:16:26.062Z,4.47
2023-04-19T09:19:22.407Z,5.70
2023-04-19T09:21:47.514Z,3.40
2023-04-19T09:24:15.561Z,3.30
2023-04-19T09:26:54.977Z,4.83
2023-04-19T09:29:23.014Z,3.27
2023-04-19T09:31:58.757Z,4.43
2023-04-19T09:34:30.544Z,4.17
2023-04-19T09:37:11.094Z,3.23
2023-04-19T09:39:41.230Z,3.93
2023-04-19T09:42:09.350Z,3.57
2023-04-19T09:47:24.307Z,3.40
2023-04-19T09:50:19.248Z,3.90
2023-04-19T09:52:50.828Z,5.47
2023-04-19T09:57:51.192Z,2.97
2023-04-19T10:00:21.576Z,5.00
2023-04-19T10:02:55.732Z,3.17
2023-04-19T10:05:25.842Z,3.20
2023-04-19T10:07:59.708Z,4.40
2023-04-19T10:15:49.477Z,3.40
2023-04-19T10:18:21.107Z,2.97
2023-04-19T10:20:55.384Z,3.13
2023-04-19T10:23:24.346Z,2.60
2023-04-19T10:25:57.786Z,3.30
2023-04-19T10:28:26.203Z,3.13
2023-04-19T10:30:55.580Z,2.50
2023-04-19T10:33:28.185Z,6.63
2023-04-19T10:36:01.183Z,4.13
2023-04-19T10:38:40.151Z,2.67
2023-04-19T10:41:16.948Z,3.60
2023-04-19T10:43:47.346Z,2.53
2023-04-19T10:46:17.752Z,3.07
2023-04-19T10:48:54.531Z,2.50
2023-04-19T10:51:27.964Z,2.30
2023-04-19T10:53:58.401Z,2.83
2023-04-19T10:56:58.549Z,3.40
2023-04-19T10:59:26.505Z,3.50
2023-04-19T11:01:58.802Z,3.17
2023-04-19T11:05:07.070Z,2.40
2023-04-19T11:07:41.075Z,2.83
2023-04-19T11:10:11.445Z,2.23
2023-04-19T11:12:43.606Z,3.43
2023-04-19T11:15:12.020Z,3.03
2023-04-19T11:17:40.008Z,2.47
2023-04-19T11:20:09.900Z,3.57
2023-04-19T11:22:41.322Z,2.13
2023-04-19T11:25:11.218Z,2.80
2023-04-19T11:27:39.956Z,3.17
2023-04-19T11:30:10.234Z,4.57
2023-04-19T11:32:38.832Z,3.13
2023-04-19T11:35:09.712Z,3.10
2023-04-19T11:37:40.195Z,4.93
2023-04-19T11:40:09.874Z,2.50
2023-04-19T11:42:37.869Z,2.50
2023-04-19T11:45:13.246Z,2.00
2023-04-19T11:47:50.256Z,3.67
2023-04-19T11:50:42.801Z,2.10
2023-04-19T11:53:16.685Z,2.53
2023-04-19T11:55:46.255Z,4.30
2023-04-19T11:58:31.915Z,2.27
2023-04-19T12:01:06.531Z,1.87
2023-04-19T12:03:35.376Z,3.27
2023-04-19T12:06:08.834Z,4.77
2023-04-19T12:08:39.413Z,1.70
2023-04-19T12:11:08.028Z,4.20
2023-04-19T12:13:37.320Z,3.33
2023-04-19T12:16:06.122Z,5.47
2023-04-19T12:18:45.541Z,2.87
2023-04-19T12:21:25.658Z,2.73
2023-04-19T12:23:57.124Z,2.80
2023-04-19T12:26:25.676Z,3.17
2023-04-19T12:28:54.476Z,3.03
2023-04-19T12:31:22.728Z,1.43
2023-04-19T12:33:51.138Z,5.73
2023-04-19T12:36:18.966Z,1.70
2023-04-19T12:38:46.902Z,1.53
2023-04-19T12:41:16.156Z,1.70
2023-04-19T12:43:44.066Z,2.67
2023-04-19T12:46:12.048Z,1.97
2023-04-19T12:48:39.992Z,4.67
2023-04-19T12:51:07.910Z,3.07
2023-04-19T12:53:35.759Z,2.70
2023-04-19T12:56:03.677Z,2.20
2023-04-19T12:58:32.961Z,2.33
2023-04-19T13:01:01.014Z,1.57
2023-04-19T13:03:33.126Z,3.33
2023-04-19T13:06:01.239Z,3.23
2023-04-19T13:08:44.253Z,3.03
2023-04-19T13:11:14.639Z,2.07
2023-04-19T13:13:43.902Z,2.47
2023-04-19T13:16:11.905Z,4.27
2023-04-19T13:18:39.926Z,1.53
2023-04-19T13:21:08.650Z,1.60
2023-04-19T13:23:36.857Z,5.80
2023-04-19T13:26:05.069Z,3.53
2023-04-19T13:28:35.625Z,5.83
2023-04-19T13:31:06.466Z,2.00
2023-04-19T13:33:34.585Z,3.50
2023-04-19T13:36:02.667Z,2.40
2023-04-19T13:38:30.724Z,2.07
2023-04-19T13:40:58.828Z,5.43
2023-04-19T13:43:26.876Z,2.70
2023-04-19T13:45:54.934Z,2.37
2023-04-19T13:48:27.191Z,2.57
2023-04-19T13:50:55.877Z,3.50
2023-04-19T13:53:24.150Z,2.57
2023-04-19T13:55:52.121Z,4.23
2023-04-19T13:58:20.212Z,5.80
2023-04-19T14:00:48.978Z,3.33
2023-04-19T14:03:17.018Z,2.00
2023-04-19T14:05:46.564Z,4.03
2023-04-19T14:08:14.438Z,5.50
2023-04-19T14:10:42.355Z,4.27
2023-04-19T14:13:10.267Z,3.43
2023-04-19T14:15:38.297Z,4.00
2023-04-19T14:18:06.613Z,3.63
2023-04-19T14:20:34.605Z,2.00
2023-04-19T14:23:04.530Z,4.53
2023-04-19T14:25:32.505Z,2.13
2023-04-19T14:28:00.624Z,1.60
2023-04-19T14:30:29.984Z,5.40
2023-04-19T14:32:59.124Z,4.13
2023-04-19T14:35:27.178Z,1.80
2023-04-19T14:37:55.124Z,2.57
2023-04-19T14:40:24.736Z,4.63
2023-04-19T14:42:53.394Z,1.80
2023-04-19T14:45:21.991Z,2.07
2023-04-19T14:47:49.892Z,2.13
2023-04-19T14:50:17.978Z,2.53
2023-04-19T14:52:45.916Z,3.37
2023-04-19T14:55:14.028Z,4.43
2023-04-19T14:57:43.618Z,4.40
2023-04-19T15:00:13.966Z,4.20
2023-04-19T15:02:41.951Z,2.37
2023-04-19T15:05:10.846Z,3.47
2023-04-19T15:07:39.626Z,1.97
2023-04-19T15:10:08.775Z,5.17
2023-04-19T15:12:36.740Z,2.20
2023-04-19T15:15:07.020Z,4.30
2023-04-19T15:17:35.023Z,6.70
2023-04-19T15:20:03.095Z,2.20
2023-04-19T15:22:30.936Z,5.30
2023-04-19T15:24:58.888Z,3.47
2023-04-19T15:27:26.813Z,3.33
2023-04-19T15:29:54.936Z,6.80
2023-04-19T15:32:24.342Z,2.13
2023-04-19T15:34:52.308Z,5.17
2023-04-19T15:37:20.305Z,3.63
2023-04-19T15:39:50.252Z,1.77
2023-04-19T15:42:18.397Z,3.83
2023-04-19T15:44:46.291Z,3.63
2023-04-19T15:47:14.189Z,1.70
2023-04-19T15:49:43.654Z,1.70
2023-04-19T15:52:11.656Z,3.63
2023-04-19T15:54:39.692Z,2.20
2023-04-19T15:57:07.633Z,2.57
2023-04-19T15:59:35.707Z,2.43
2023-04-19T16:02:03.660Z,2.70
2023-04-19T16:04:32.176Z,3.67
2023-04-19T16:07:01.807Z,2.63
2023-04-19T16:09:29.988Z,2.03
2023-04-19T16:11:57.953Z,3.00
2023-04-19T16:14:25.967Z,1.70
2023-04-19T16:16:54.377Z,2.10
2023-04-19T16:19:23.317Z,3.67
2023-04-19T16:21:51.551Z,3.83
2023-04-19T16:24:20.967Z,3.70
2023-04-19T16:26:49.138Z,2.67
2023-04-19T16:29:17.495Z,2.17
2023-04-19T16:31:45.570Z,1.80
2023-04-19T16:34:13.734Z,2.20
2023-04-19T16:36:44.635Z,1.77
2023-04-19T16:39:12.648Z,3.30
2023-04-19T16:41:41.905Z,3.20
2023-04-19T16:44:09.860Z,2.33
2023-04-19T16:46:37.932Z,2.20
2023-04-19T16:49:06.006Z,2.43
2023-04-19T16:51:34.102Z,3.47
2023-04-19T16:54:02.052Z,1.97
2023-04-19T16:56:29.952Z,2.67
2023-04-19T16:58:59.192Z,1.77
2023-04-19T17:01:27.106Z,2.03
2023-04-19T17:03:55.145Z,6.50
2023-04-19T17:06:23.559Z,1.93
2023-04-19T17:08:51.486Z,2.43
2023-04-19T17:11:19.364Z,5.10
2023-04-19T17:13:47.247Z,2.97
2023-04-19T17:16:16.646Z,2.30
2023-04-19T17:18:44.683Z,2.37
2023-04-19T17:21:12.992Z,3.20
2023-04-19T17:23:40.958Z,3.10
2023-04-19T17:26:09.305Z,3.13
2023-04-19T17:28:38.439Z,1.93
2023-04-19T17:31:06.748Z,3.27
2023-04-19T17:33:36.081Z,2.63
2023-04-19T17:36:06.792Z,3.50
2023-04-19T17:38:35.027Z,6.53
2023-04-19T17:41:03.495Z,1.77
2023-04-19T17:43:31.361Z,2.60
2023-04-19T17:45:59.601Z,1.70
2023-04-19T17:48:27.499Z,3.90
2023-04-19T17:50:57.264Z,1.80
2023-04-19T17:53:25.137Z,2.67
2023-04-19T17:55:53.112Z,5.27
2023-04-19T17:58:21.147Z,1.87
2023-04-19T18:00:49.388Z,2.23
2023-04-19T18:03:17.592Z,2.47
2023-04-19T18:05:45.582Z,3.00
2023-04-19T18:08:14.881Z,2.60
2023-04-19T18:10:42.823Z,3.00
2023-04-19T18:13:11.002Z,1.43
2023-04-19T18:15:38.923Z,3.07
2023-04-19T18:18:07.133Z,4.10
2023-04-19T18:20:35.095Z,4.93
2023-04-19T18:23:03.303Z,1.90
2023-04-19T18:25:35.247Z,1.53
2023-04-19T18:28:03.327Z,1.93
2023-04-19T18:30:31.286Z,4.07
2023-04-19T18:32:59.802Z,1.83
2023-04-19T18:35:27.770Z,2.37
2023-04-19T18:37:56.010Z,4.10
2023-04-19T18:40:26.023Z,5.13
2023-04-19T18:42:55.343Z,4.60
2023-04-19T18:45:24.079Z,1.87
2023-04-19T18:47:52.048Z,3.80
2023-04-19T18:50:20.176Z,1.70
2023-04-19T18:52:48.029Z,2.50
2023-04-19T18:55:16.091Z,4.13
2023-04-19T18:57:43.989Z,2.10
2023-04-19T19:00:14.611Z,2.13
2023-04-19T19:02:44.030Z,4.67
2023-04-19T19:05:15.383Z,2.43
2023-04-19T19:07:43.709Z,2.10
2023-04-19T19:10:18.301Z,2.83
2023-04-19T19:12:50.015Z,2.10
2023-04-19T19:15:19.498Z,4.17
2023-04-19T19:17:49.676Z,1.73
2023-04-19T19:20:18.576Z,3.30
2023-04-19T19:22:46.836Z,3.43
2023-04-19T19:25:14.878Z,2.77
2023-04-19T19:27:58.450Z,3.00
2023-04-19T19:30:33.882Z,3.23
2023-04-19T19:33:02.437Z,2.43
2023-04-19T19:35:30.419Z,3.60
2023-04-19T19:37:58.256Z,4.70
2023-04-19T19:40:30.656Z,4.03
2023-04-19T19:42:59.303Z,2.03
2023-04-19T19:45:28.436Z,3.53
2023-04-19T19:47:59.245Z,2.30
2023-04-19T19:53:00.296Z,3.50
2023-04-19T19:55:28.483Z,1.87
2023-04-19T20:02:59.716Z,2.10
2023-04-19T20:05:28.638Z,3.30
2023-04-19T20:08:07.804Z,2.25
2023-04-19T20:10:36.347Z,3.40
2023-04-19T20:13:06.095Z,6.20
2023-04-19T20:15:34.566Z,4.47
2023-04-19T20:18:04.230Z,2.83
2023-04-19T20:20:32.275Z,2.57
2023-04-19T20:23:00.224Z,2.27
2023-04-19T20:25:28.385Z,3.00
2023-04-19T20:27:56.553Z,2.67
2023-04-19T20:30:24.676Z,3.03
2023-04-19T20:32:52.822Z,3.73
2023-04-19T20:35:22.308Z,2.93
2023-04-19T20:37:50.833Z,5.53
2023-04-19T20:40:19.053Z,4.27
2023-04-19T20:42:47.217Z,2.63
2023-04-19T20:45:15.297Z,3.17
2023-04-19T20:47:43.335Z,4.07
2023-04-19T20:50:11.846Z,3.10
2023-04-19T20:52:41.192Z,2.70
2023-04-19T20:55:10.045Z,1.90
2023-04-19T20:57:38.044Z,2.37
2023-04-19T21:00:08.687Z,2.43
2023-04-19T21:02:37.065Z,3.23
2023-04-19T21:05:05.776Z,2.40
2023-04-19T21:07:33.783Z,5.63
2023-04-19T21:10:03.134Z,2.63
2023-04-19T21:12:31.079Z,4.23
2023-04-19T21:14:59.005Z,3.83
2023-04-19T21:17:27.139Z,2.53
2023-04-19T21:19:55.173Z,3.20
2023-04-19T21:22:23.131Z,3.07
2023-04-19T21:24:50.970Z,3.73
2023-04-19T21:27:20.306Z,3.20
2023-04-19T21:29:48.295Z,2.17
2023-04-19T21:32:16.277Z,3.77
2023-04-19T21:34:45.200Z,1.80
2023-04-19T21:37:13.172Z,3.17
2023-04-19T21:39:41.145Z,3.40
2023-04-19T21:42:09.068Z,2.30
2023-04-19T21:44:38.313Z,2.67
2023-04-19T21:47:06.437Z,4.53
2023-04-19T21:49:34.501Z,4.27
2023-04-19T21:52:02.534Z,3.60
2023-04-19T21:54:33.992Z,4.87
2023-04-19T21:57:02.854Z,3.17
2023-04-19T21:59:31.415Z,5.80
2023-04-19T22:02:01.141Z,2.60
2023-04-19T22:04:30.885Z,6.10
2023-04-19T22:07:02.153Z,4.03
2023-04-19T22:09:31.238Z,3.30
2023-04-19T22:12:00.130Z,4.37
2023-04-19T22:14:28.352Z,3.07
2023-04-19T22:16:56.578Z,2.37
2023-04-19T22:19:26.162Z,4.37
2023-04-19T22:21:55.075Z,4.13
2023-04-19T22:24:23.567Z,4.93
2023-04-19T22:26:52.971Z,4.27
2023-04-19T22:29:21.402Z,4.73
2023-04-19T22:31:49.355Z,2.63
2023-04-19T22:34:17.348Z,8.23
2023-04-19T22:36:47.806Z,3.20
2023-04-19T22:39:15.848Z,3.47
2023-04-19T22:41:45.930Z,4.07
2023-04-19T22:44:13.890Z,3.13
2023-04-19T22:46:41.890Z,3.13
2023-04-19T22:49:10.042Z,4.63
2023-04-19T22:51:38.336Z,4.47
2023-04-19T22:54:07.663Z,4.63
2023-04-19T22:56:35.560Z,4.53
2023-04-19T22:59:03.420Z,4.00
2023-04-19T23:01:31.486Z,7.30
2023-04-19T23:03:59.592Z,6.57
2023-04-19T23:06:28.854Z,2.27
2023-04-19T23:08:57.243Z,3.57
2023-04-19T23:11:26.932Z,4.30
2023-04-19T23:13:54.860Z,3.63
2023-04-19T23:16:25.129Z,3.00
2023-04-19T23:18:54.384Z,3.30
2023-04-19T23:21:22.303Z,3.93
2023-04-19T23:23:52.393Z,4.63
2023-04-19T23:26:21.661Z,5.57
2023-04-19T23:28:51.133Z,4.13
2023-04-19T23:31:19.130Z,4.93
2023-04-19T23:33:47.085Z,4.37
2023-04-19T23:36:15.025Z,5.20
2023-04-19T23:38:42.880Z,2.27
2023-04-19T23:41:11.617Z,3.97
2023-04-19T23:43:39.569Z,7.43
2023-04-19T23:46:08.932Z,2.90
2023-04-19T23:48:36.880Z,7.53
2023-04-19T23:51:04.938Z,7.50
2023-04-19T23:53:32.843Z,8.17
2023-04-19T23:56:00.792Z,2.93
2023-04-19T23:58:28.728Z,5.43
